sensor_id;sensor_type;location;lat;lon;timestamp;pressure;altitude;pressure_sealevel;temperature;humidity
64294;BME280;50636;45.596;5.258;2023-02-13T00:00:12;100433.88;;;1.88;66.88
64294;BME280;50636;45.596;5.258;2023-02-13T00:03:04;100430.16;;;2.05;66.13
64294;BME280;50636;45.596;5.258;2023-02-13T00:05:31;100441.44;;;1.91;65.40
64294;BME280;50636;45.596;5.258;2023-02-13T00:08:29;100435.53;;;1.89;65.84
64294;BME280;50636;45.596;5.258;2023-02-13T00:10:57;100434.47;;;1.79;65.66
64294;BME280;50636;45.596;5.258;2023-02-13T00:13:23;100434.69;;;1.49;65.75
64294;BME280;50636;45.596;5.258;2023-02-13T00:15:58;100431.34;;;1.34;66.50
64294;BME280;50636;45.596;5.258;2023-02-13T00:18:26;100430.56;;;1.19;67.50
64294;BME280;50636;45.596;5.258;2023-02-13T00:21:10;100434.72;;;1.22;68.73
64294;BME280;50636;45.596;5.258;2023-02-13T00:23:38;100429.41;;;1.37;68.63
64294;BME280;50636;45.596;5.258;2023-02-13T00:26:29;100434.75;;;1.62;67.80
64294;BME280;50636;45.596;5.258;2023-02-13T00:29:01;100435.09;;;1.83;67.19
64294;BME280;50636;45.596;5.258;2023-02-13T00:31:30;100431.06;;;1.78;67.02
64294;BME280;50636;45.596;5.258;2023-02-13T00:33:57;100434.03;;;1.72;67.23
64294;BME280;50636;45.596;5.258;2023-02-13T00:36:32;100432.06;;;1.63;67.18
64294;BME280;50636;45.596;5.258;2023-02-13T00:38:57;100426.38;;;1.71;67.26
64294;BME280;50636;45.596;5.258;2023-02-13T00:41:25;100428.88;;;1.72;67.18
64294;BME280;50636;45.596;5.258;2023-02-13T00:43:52;100433.13;;;1.86;67.14
64294;BME280;50636;45.596;5.258;2023-02-13T00:46:19;100423.75;;;1.98;66.63
64294;BME280;50636;45.596;5.258;2023-02-13T00:48:46;100434.09;;;1.98;66.23
64294;BME280;50636;45.596;5.258;2023-02-13T00:51:13;100434.28;;;1.95;65.85
64294;BME280;50636;45.596;5.258;2023-02-13T00:53:40;100430.06;;;1.94;66.53
64294;BME280;50636;45.596;5.258;2023-02-13T00:56:07;100432.84;;;1.91;66.07
64294;BME280;50636;45.596;5.258;2023-02-13T00:58:34;100428.47;;;1.78;66.74
64294;BME280;50636;45.596;5.258;2023-02-13T01:01:02;100429.69;;;1.73;66.86
64294;BME280;50636;45.596;5.258;2023-02-13T01:03:29;100431.53;;;1.58;66.88
64294;BME280;50636;45.596;5.258;2023-02-13T01:05:56;100431.50;;;1.45;67.53
64294;BME280;50636;45.596;5.258;2023-02-13T01:08:23;100431.66;;;1.29;67.98
64294;BME280;50636;45.596;5.258;2023-02-13T01:10:59;100441.44;;;1.24;67.99
64294;BME280;50636;45.596;5.258;2023-02-13T01:13:26;100438.28;;;1.33;68.56
64294;BME280;50636;45.596;5.258;2023-02-13T01:15:53;100440.50;;;1.52;67.57
64294;BME280;50636;45.596;5.258;2023-02-13T01:18:20;100441.72;;;1.47;67.50
64294;BME280;50636;45.596;5.258;2023-02-13T01:20:59;100451.00;;;1.36;67.23
64294;BME280;50636;45.596;5.258;2023-02-13T01:23:35;100450.97;;;1.24;67.37
64294;BME280;50636;45.596;5.258;2023-02-13T01:26:04;100451.53;;;1.14;67.97
64294;BME280;50636;45.596;5.258;2023-02-13T01:28:32;100450.53;;;1.03;68.12
64294;BME280;50636;45.596;5.258;2023-02-13T01:30:59;100464.56;;;0.98;67.89
64294;BME280;50636;45.596;5.258;2023-02-13T01:33:47;100460.72;;;0.91;67.93
64294;BME280;50636;45.596;5.258;2023-02-13T01:36:30;100459.78;;;0.92;68.19
64294;BME280;50636;45.596;5.258;2023-02-13T01:39:14;100458.97;;;0.92;68.00
64294;BME280;50636;45.596;5.258;2023-02-13T01:41:40;100459.69;;;0.94;67.90
64294;BME280;50636;45.596;5.258;2023-02-13T01:53:52;100462.38;;;0.92;69.00
64294;BME280;50636;45.596;5.258;2023-02-13T01:56:54;100459.53;;;0.97;68.49
64294;BME280;50636;45.596;5.258;2023-02-13T02:00:22;100465.69;;;0.94;68.28
64294;BME280;50636;45.596;5.258;2023-02-13T02:03:09;100466.25;;;0.99;68.90
64294;BME280;50636;45.596;5.258;2023-02-13T02:06:00;100463.47;;;1.03;68.73
64294;BME280;50636;45.596;5.258;2023-02-13T02:08:37;100450.53;;;1.03;68.88
64294;BME280;50636;45.596;5.258;2023-02-13T02:11:45;100452.03;;;1.07;68.35
64294;BME280;50636;45.596;5.258;2023-02-13T02:14:42;100457.38;;;1.04;67.85
64294;BME280;50636;45.596;5.258;2023-02-13T02:17:15;100451.94;;;0.94;68.13
64294;BME280;50636;45.596;5.258;2023-02-13T02:41:27;100453.91;;;0.76;69.39
64294;BME280;50636;45.596;5.258;2023-02-13T02:59:17;100438.94;;;1.23;68.36
64294;BME280;50636;45.596;5.258;2023-02-13T03:02:20;100441.31;;;1.13;67.86
64294;BME280;50636;45.596;5.258;2023-02-13T03:08:28;100452.22;;;1.04;67.74
64294;BME280;50636;45.596;5.258;2023-02-13T03:11:14;100440.19;;;1.03;67.84
64294;BME280;50636;45.596;5.258;2023-02-13T03:14:19;100440.09;;;1.04;67.84
64294;BME280;50636;45.596;5.258;2023-02-13T03:17:10;100434.94;;;1.04;67.66
64294;BME280;50636;45.596;5.258;2023-02-13T03:37:05;100426.75;;;1.25;67.70
64294;BME280;50636;45.596;5.258;2023-02-13T03:40:27;100431.47;;;1.18;67.82
64294;BME280;50636;45.596;5.258;2023-02-13T03:47:13;100439.50;;;1.28;67.73
64294;BME280;50636;45.596;5.258;2023-02-13T03:50:00;100435.69;;;1.33;67.94
64294;BME280;50636;45.596;5.258;2023-02-13T03:55:50;100437.56;;;1.31;67.85
64294;BME280;50636;45.596;5.258;2023-02-13T03:59:00;100445.16;;;1.20;67.89
64294;BME280;50636;45.596;5.258;2023-02-13T04:02:09;100447.09;;;1.16;68.35
64294;BME280;50636;45.596;5.258;2023-02-13T04:05:16;100444.75;;;1.26;68.15
64294;BME280;50636;45.596;5.258;2023-02-13T04:08:03;100447.81;;;1.33;67.96
64294;BME280;50636;45.596;5.258;2023-02-13T04:14:02;100440.47;;;1.39;68.55
64294;BME280;50636;45.596;5.258;2023-02-13T04:17:13;100449.22;;;1.51;68.52
64294;BME280;50636;45.596;5.258;2023-02-13T04:20:27;100442.44;;;1.63;68.27
64294;BME280;50636;45.596;5.258;2023-02-13T04:23:16;100441.91;;;1.71;68.38
64294;BME280;50636;45.596;5.258;2023-02-13T04:25:57;100447.06;;;1.71;68.43
64294;BME280;50636;45.596;5.258;2023-02-13T04:28:30;100447.41;;;1.79;68.17
64294;BME280;50636;45.596;5.258;2023-02-13T04:30:57;100445.78;;;1.91;67.63
64294;BME280;50636;45.596;5.258;2023-02-13T04:33:41;100449.41;;;2.01;67.66
64294;BME280;50636;45.596;5.258;2023-02-13T04:36:17;100455.53;;;2.00;67.64
64294;BME280;50636;45.596;5.258;2023-02-13T04:39:02;100452.84;;;2.02;67.23
64294;BME280;50636;45.596;5.258;2023-02-13T04:41:41;100454.72;;;1.99;67.29
64294;BME280;50636;45.596;5.258;2023-02-13T04:44:26;100455.31;;;1.90;66.97
64294;BME280;50636;45.596;5.258;2023-02-13T04:47:02;100452.00;;;1.88;67.08
64294;BME280;50636;45.596;5.258;2023-02-13T04:49:52;100455.22;;;1.92;67.64
64294;BME280;50636;45.596;5.258;2023-02-13T04:52:39;100458.84;;;2.02;67.95
64294;BME280;50636;45.596;5.258;2023-02-13T04:55:24;100456.03;;;2.05;67.62
64294;BME280;50636;45.596;5.258;2023-02-13T04:58:05;100455.72;;;1.97;67.22
64294;BME280;50636;45.596;5.258;2023-02-13T05:00:48;100450.84;;;1.92;67.32
64294;BME280;50636;45.596;5.258;2023-02-13T05:03:27;100447.75;;;1.87;67.18
64294;BME280;50636;45.596;5.258;2023-02-13T05:06:02;100450.94;;;1.78;66.85
64294;BME280;50636;45.596;5.258;2023-02-13T05:08:33;100453.84;;;1.73;67.23
64294;BME280;50636;45.596;5.258;2023-02-13T05:11:06;100447.53;;;1.77;67.72
64294;BME280;50636;45.596;5.258;2023-02-13T05:13:41;100451.75;;;1.78;67.73
64294;BME280;50636;45.596;5.258;2023-02-13T05:16:09;100458.13;;;1.87;67.17
64294;BME280;50636;45.596;5.258;2023-02-13T05:18:36;100450.63;;;1.83;66.84
64294;BME280;50636;45.596;5.258;2023-02-13T05:21:14;100452.06;;;1.74;66.60
64294;BME280;50636;45.596;5.258;2023-02-13T05:24:10;100446.88;;;1.74;66.51
64294;BME280;50636;45.596;5.258;2023-02-13T05:26:43;100451.97;;;1.75;66.66
64294;BME280;50636;45.596;5.258;2023-02-13T05:29:10;100448.03;;;1.83;67.19
64294;BME280;50636;45.596;5.258;2023-02-13T05:32:06;100453.88;;;1.99;66.79
64294;BME280;50636;45.596;5.258;2023-02-13T05:34:39;100457.19;;;2.01;66.50
64294;BME280;50636;45.596;5.258;2023-02-13T05:37:06;100453.13;;;1.97;65.93
64294;BME280;50636;45.596;5.258;2023-02-13T05:39:32;100455.22;;;1.92;66.28
64294;BME280;50636;45.596;5.258;2023-02-13T05:42:00;100448.28;;;1.92;66.01
64294;BME280;50636;45.596;5.258;2023-02-13T05:44:31;100447.03;;;1.98;65.86
64294;BME280;50636;45.596;5.258;2023-02-13T05:46:58;100458.53;;;1.94;65.89
64294;BME280;50636;45.596;5.258;2023-02-13T05:49:24;100458.44;;;1.95;65.97
64294;BME280;50636;45.596;5.258;2023-02-13T05:51:51;100461.94;;;1.94;65.54
64294;BME280;50636;45.596;5.258;2023-02-13T05:54:19;100454.59;;;2.01;66.03
64294;BME280;50636;45.596;5.258;2023-02-13T05:56:46;100462.16;;;2.04;65.97
64294;BME280;50636;45.596;5.258;2023-02-13T05:59:13;100461.03;;;2.08;65.64
64294;BME280;50636;45.596;5.258;2023-02-13T06:01:41;100465.91;;;2.00;65.46
64294;BME280;50636;45.596;5.258;2023-02-13T06:04:08;100466.47;;;1.91;65.23
64294;BME280;50636;45.596;5.258;2023-02-13T06:06:34;100461.22;;;1.92;65.81
64294;BME280;50636;45.596;5.258;2023-02-13T06:09:02;100465.41;;;2.08;65.92
64294;BME280;50636;45.596;5.258;2023-02-13T06:11:29;100458.56;;;2.19;65.88
64294;BME280;50636;45.596;5.258;2023-02-13T06:13:55;100450.81;;;2.19;64.87
64294;BME280;50636;45.596;5.258;2023-02-13T06:16:22;100447.03;;;2.11;64.67
64294;BME280;50636;45.596;5.258;2023-02-13T06:18:51;100456.44;;;1.99;64.64
64294;BME280;50636;45.596;5.258;2023-02-13T06:21:18;100452.00;;;2.01;65.39
64294;BME280;50636;45.596;5.258;2023-02-13T06:23:44;100457.00;;;2.04;64.95
64294;BME280;50636;45.596;5.258;2023-02-13T06:26:12;100450.78;;;2.07;64.87
64294;BME280;50636;45.596;5.258;2023-02-13T06:28:38;100454.50;;;2.03;64.52
64294;BME280;50636;45.596;5.258;2023-02-13T06:31:04;100467.13;;;2.07;64.85
64294;BME280;50636;45.596;5.258;2023-02-13T06:33:38;100467.97;;;2.08;64.61
64294;BME280;50636;45.596;5.258;2023-02-13T06:36:19;100471.94;;;2.13;64.78
64294;BME280;50636;45.596;5.258;2023-02-13T06:38:45;100474.22;;;2.31;65.20
64294;BME280;50636;45.596;5.258;2023-02-13T06:41:15;100467.47;;;2.41;64.30
64294;BME280;50636;45.596;5.258;2023-02-13T06:43:42;100476.28;;;2.51;63.90
64294;BME280;50636;45.596;5.258;2023-02-13T06:46:09;100482.91;;;2.55;63.76
64294;BME280;50636;45.596;5.258;2023-02-13T06:48:36;100487.19;;;2.56;63.40
64294;BME280;50636;45.596;5.258;2023-02-13T06:51:03;100485.50;;;2.55;63.75
64294;BME280;50636;45.596;5.258;2023-02-13T06:53:30;100485.06;;;2.62;63.39
64294;BME280;50636;45.596;5.258;2023-02-13T06:55:57;100488.72;;;2.72;64.00
64294;BME280;50636;45.596;5.258;2023-02-13T06:58:25;100487.94;;;2.95;64.53
64294;BME280;50636;45.596;5.258;2023-02-13T07:00:52;100487.53;;;3.38;64.93
64294;BME280;50636;45.596;5.258;2023-02-13T07:03:20;100486.13;;;3.94;65.08
64294;BME280;50636;45.596;5.258;2023-02-13T07:05:47;100486.72;;;4.67;63.27
64294;BME280;50636;45.596;5.258;2023-02-13T07:08:18;100488.13;;;5.27;61.25
64294;BME280;50636;45.596;5.258;2023-02-13T07:10:45;100488.38;;;5.89;59.88
64294;BME280;50636;45.596;5.258;2023-02-13T07:13:13;100489.50;;;6.49;58.28
64294;BME280;50636;45.596;5.258;2023-02-13T07:15:39;100485.25;;;7.19;56.61
64294;BME280;50636;45.596;5.258;2023-02-13T07:18:14;100483.81;;;7.95;55.87
64294;BME280;50636;45.596;5.258;2023-02-13T07:20:42;100488.78;;;8.65;54.35
64294;BME280;50636;45.596;5.258;2023-02-13T07:23:10;100477.50;;;9.19;52.26
64294;BME280;50636;45.596;5.258;2023-02-13T07:25:37;100490.19;;;9.60;50.93
64294;BME280;50636;45.596;5.258;2023-02-13T07:28:05;100495.00;;;9.65;49.55
64294;BME280;50636;45.596;5.258;2023-02-13T07:30:33;100496.25;;;9.60;49.31
64294;BME280;50636;45.596;5.258;2023-02-13T07:33:04;100497.00;;;9.89;49.21
64294;BME280;50636;45.596;5.258;2023-02-13T07:35:31;100497.63;;;10.27;47.07
64294;BME280;50636;45.596;5.258;2023-02-13T07:37:58;100497.38;;;10.64;46.73
64294;BME280;50636;45.596;5.258;2023-02-13T07:40:26;100499.09;;;11.16;46.12
64294;BME280;50636;45.596;5.258;2023-02-13T07:42:58;100491.78;;;11.44;44.66
64294;BME280;50636;45.596;5.258;2023-02-13T07:45:26;100491.00;;;11.60;43.56
64294;BME280;50636;45.596;5.258;2023-02-13T07:47:55;100491.66;;;11.87;42.66
64294;BME280;50636;45.596;5.258;2023-02-13T07:50:22;100498.72;;;11.53;40.92
64294;BME280;50636;45.596;5.258;2023-02-13T07:52:54;100505.69;;;10.51;41.99
64294;BME280;50636;45.596;5.258;2023-02-13T07:55:22;100510.31;;;9.59;43.84
64294;BME280;50636;45.596;5.258;2023-02-13T07:57:49;100515.44;;;9.61;44.66
64294;BME280;50636;45.596;5.258;2023-02-13T08:00:17;100507.34;;;10.08;44.47
64294;BME280;50636;45.596;5.258;2023-02-13T08:02:44;100517.16;;;10.06;44.08
64294;BME280;50636;45.596;5.258;2023-02-13T08:05:11;100507.06;;;10.19;43.84
64294;BME280;50636;45.596;5.258;2023-02-13T08:07:56;100519.34;;;10.55;43.35
64294;BME280;50636;45.596;5.258;2023-02-13T08:10:25;100513.97;;;10.65;43.47
64294;BME280;50636;45.596;5.258;2023-02-13T08:13:21;100513.75;;;11.27;43.60
64294;BME280;50636;45.596;5.258;2023-02-13T08:15:47;100505.69;;;12.04;42.23
64294;BME280;50636;45.596;5.258;2023-02-13T08:18:13;100514.34;;;12.62;40.89
64294;BME280;50636;45.596;5.258;2023-02-13T08:20:51;100503.47;;;13.12;40.62
64294;BME280;50636;45.596;5.258;2023-02-13T08:23:35;100499.59;;;13.63;39.97
64294;BME280;50636;45.596;5.258;2023-02-13T08:26:16;100502.13;;;14.17;38.76
64294;BME280;50636;45.596;5.258;2023-02-13T08:28:46;100497.13;;;14.75;37.63
64294;BME280;50636;45.596;5.258;2023-02-13T08:31:13;100490.66;;;15.50;36.18
64294;BME280;50636;45.596;5.258;2023-02-13T08:33:42;100495.16;;;16.14;35.14
64294;BME280;50636;45.596;5.258;2023-02-13T08:36:10;100493.69;;;16.75;34.15
64294;BME280;50636;45.596;5.258;2023-02-13T08:38:37;100494.34;;;17.25;32.92
64294;BME280;50636;45.596;5.258;2023-02-13T08:41:04;100497.72;;;17.67;32.21
64294;BME280;50636;45.596;5.258;2023-02-13T08:43:33;100498.97;;;18.05;32.17
64294;BME280;50636;45.596;5.258;2023-02-13T08:46:00;100485.91;;;18.23;31.07
64294;BME280;50636;45.596;5.258;2023-02-13T08:48:28;100494.41;;;18.59;30.98
64294;BME280;50636;45.596;5.258;2023-02-13T08:50:55;100489.81;;;18.99;29.64
64294;BME280;50636;45.596;5.258;2023-02-13T08:53:22;100482.78;;;19.11;29.41
64294;BME280;50636;45.596;5.258;2023-02-13T08:55:56;100486.41;;;19.62;28.96
64294;BME280;50636;45.596;5.258;2023-02-13T08:58:24;100483.19;;;20.10;28.09
64294;BME280;50636;45.596;5.258;2023-02-13T09:00:51;100483.88;;;20.68;27.54
64294;BME280;50636;45.596;5.258;2023-02-13T09:03:18;100481.13;;;20.93;27.08
64294;BME280;50636;45.596;5.258;2023-02-13T09:05:45;100472.81;;;21.31;26.82
64294;BME280;50636;45.596;5.258;2023-02-13T09:08:12;100473.53;;;21.81;26.31
64294;BME280;50636;45.596;5.258;2023-02-13T09:10:41;100475.91;;;22.36;25.62
64294;BME280;50636;45.596;5.258;2023-02-13T09:13:09;100479.22;;;22.67;25.15
64294;BME280;50636;45.596;5.258;2023-02-13T09:15:40;100483.47;;;22.91;24.95
64294;BME280;50636;45.596;5.258;2023-02-13T09:18:07;100479.16;;;23.02;24.43
64294;BME280;50636;45.596;5.258;2023-02-13T09:20:34;100478.88;;;23.16;23.87
64294;BME280;50636;45.596;5.258;2023-02-13T09:23:01;100485.66;;;23.35;23.58
64294;BME280;50636;45.596;5.258;2023-02-13T09:25:28;100474.50;;;23.55;23.52
64294;BME280;50636;45.596;5.258;2023-02-13T09:27:58;100476.03;;;23.68;23.63
64294;BME280;50636;45.596;5.258;2023-02-13T09:30:27;100484.50;;;23.77;23.30
64294;BME280;50636;45.596;5.258;2023-02-13T09:32:55;100470.69;;;24.02;23.17
64294;BME280;50636;45.596;5.258;2023-02-13T09:35:22;100483.03;;;24.20;22.72
64294;BME280;50636;45.596;5.258;2023-02-13T09:37:50;100470.03;;;24.11;22.63
64294;BME280;50636;45.596;5.258;2023-02-13T09:40:33;100468.19;;;24.34;22.74
64294;BME280;50636;45.596;5.258;2023-02-13T09:43:36;100477.56;;;24.70;22.41
64294;BME280;50636;45.596;5.258;2023-02-13T09:46:42;100464.31;;;25.13;22.26
64294;BME280;50636;45.596;5.258;2023-02-13T09:49:11;100475.28;;;25.61;22.82
64294;BME280;50636;45.596;5.258;2023-02-13T09:51:49;100472.13;;;25.69;21.85
64294;BME280;50636;45.596;5.258;2023-02-13T09:54:24;100472.91;;;25.64;21.82
64294;BME280;50636;45.596;5.258;2023-02-13T10:00:05;100475.03;;;25.08;22.45
64294;BME280;50636;45.596;5.258;2023-02-13T10:02:52;100477.75;;;25.67;22.10
64294;BME280;50636;45.596;5.258;2023-02-13T10:16:52;100500.91;;;20.48;27.10
64294;BME280;50636;45.596;5.258;2023-02-13T10:19:43;100498.66;;;20.45;27.72
64294;BME280;50636;45.596;5.258;2023-02-13T10:22:58;100489.69;;;20.58;27.55
64294;BME280;50636;45.596;5.258;2023-02-13T10:26:04;100488.78;;;21.92;26.56
64294;BME280;50636;45.596;5.258;2023-02-13T10:28:33;100484.84;;;23.06;24.73
64294;BME280;50636;45.596;5.258;2023-02-13T10:31:35;100472.72;;;24.11;23.92
64294;BME280;50636;45.596;5.258;2023-02-13T10:34:15;100471.59;;;25.12;22.41
64294;BME280;50636;45.596;5.258;2023-02-13T10:36:47;100480.19;;;25.96;21.86
64294;BME280;50636;45.596;5.258;2023-02-13T10:39:28;100475.03;;;26.37;20.97
64294;BME280;50636;45.596;5.258;2023-02-13T10:56:42;100449.00;;;26.53;20.32
64294;BME280;50636;45.596;5.258;2023-02-13T11:02:41;100453.22;;;25.91;21.13
64294;BME280;50636;45.596;5.258;2023-02-13T11:05:21;100445.25;;;25.69;21.07
64294;BME280;50636;45.596;5.258;2023-02-13T11:07:50;100440.84;;;25.25;21.54
64294;BME280;50636;45.596;5.258;2023-02-13T11:10:20;100437.06;;;24.99;22.31
64294;BME280;50636;45.596;5.258;2023-02-13T11:12:49;100443.69;;;25.19;22.44
64294;BME280;50636;45.596;5.258;2023-02-13T11:15:23;100438.34;;;25.46;22.01
64294;BME280;50636;45.596;5.258;2023-02-13T11:17:58;100428.22;;;25.96;22.57
64294;BME280;50636;45.596;5.258;2023-02-13T11:20:35;100437.78;;;26.66;21.85
64294;BME280;50636;45.596;5.258;2023-02-13T11:26:03;100424.72;;;27.67;20.54
64294;BME280;50636;45.596;5.258;2023-02-13T11:28:33;100417.00;;;28.31;19.31
64294;BME280;50636;45.596;5.258;2023-02-13T11:31:38;100414.88;;;28.88;19.53
64294;BME280;50636;45.596;5.258;2023-02-13T11:34:28;100414.50;;;29.05;19.04
64294;BME280;50636;45.596;5.258;2023-02-13T11:39:42;100419.09;;;28.55;18.64
64294;BME280;50636;45.596;5.258;2023-02-13T11:42:34;100407.53;;;28.44;19.39
64294;BME280;50636;45.596;5.258;2023-02-13T11:45:28;100413.47;;;28.41;19.39
64294;BME280;50636;45.596;5.258;2023-02-13T11:47:55;100411.81;;;28.55;18.88
64294;BME280;50636;45.596;5.258;2023-02-13T11:50:32;100413.38;;;28.66;19.05
64294;BME280;50636;45.596;5.258;2023-02-13T11:55:36;100405.63;;;28.44;19.00
64294;BME280;50636;45.596;5.258;2023-02-13T12:00:41;100393.59;;;28.16;19.01
64294;BME280;50636;45.596;5.258;2023-02-13T12:03:35;100385.19;;;28.23;19.05
64294;BME280;50636;45.596;5.258;2023-02-13T12:06:11;100384.09;;;28.29;18.94
64294;BME280;50636;45.596;5.258;2023-02-13T12:08:44;100382.41;;;28.43;18.83
64294;BME280;50636;45.596;5.258;2023-02-13T12:11:33;100378.00;;;28.63;18.66
64294;BME280;50636;45.596;5.258;2023-02-13T12:17:42;100376.66;;;27.85;17.86
64294;BME280;50636;45.596;5.258;2023-02-13T12:20:25;100375.13;;;27.43;17.60
64294;BME280;50636;45.596;5.258;2023-02-13T12:38:19;100367.16;;;24.67;17.36
64294;BME280;50636;45.596;5.258;2023-02-13T12:54:48;100355.34;;;23.46;19.35
64294;BME280;50636;45.596;5.258;2023-02-13T13:01:01;100350.13;;;23.73;18.40
64294;BME280;50636;45.596;5.258;2023-02-13T13:04:35;100339.81;;;23.82;18.33
64294;BME280;50636;45.596;5.258;2023-02-13T13:28:33;100311.00;;;24.16;18.19
64294;BME280;50636;45.596;5.258;2023-02-13T13:31:12;100317.31;;;23.83;18.59
64294;BME280;50636;45.596;5.258;2023-02-13T13:33:49;100309.31;;;23.88;18.79
64294;BME280;50636;45.596;5.258;2023-02-13T13:36:35;100311.94;;;23.66;18.68
64294;BME280;50636;45.596;5.258;2023-02-13T13:51:48;100299.22;;;23.56;19.05
64294;BME280;50636;45.596;5.258;2023-02-13T13:54:18;100298.50;;;23.44;19.13
64294;BME280;50636;45.596;5.258;2023-02-13T13:57:02;100299.03;;;23.07;18.94
64294;BME280;50636;45.596;5.258;2023-02-13T14:05:19;100299.53;;;22.06;20.21
64294;BME280;50636;45.596;5.258;2023-02-13T14:07:58;100297.63;;;21.78;20.34
64294;BME280;50636;45.596;5.258;2023-02-13T14:13:39;100289.66;;;21.00;21.57
64294;BME280;50636;45.596;5.258;2023-02-13T14:16:09;100288.34;;;20.79;20.98
64294;BME280;50636;45.596;5.258;2023-02-13T14:18:37;100288.81;;;20.58;21.11
64294;BME280;50636;45.596;5.258;2023-02-13T14:21:23;100285.56;;;20.25;21.01
64294;BME280;50636;45.596;5.258;2023-02-13T14:23:51;100281.13;;;20.01;21.68
64294;BME280;50636;45.596;5.258;2023-02-13T14:26:31;100279.41;;;19.88;22.03
64294;BME280;50636;45.596;5.258;2023-02-13T14:31:37;100285.59;;;19.88;21.55
64294;BME280;50636;45.596;5.258;2023-02-13T14:36:47;100276.59;;;19.64;21.80
64294;BME280;50636;45.596;5.258;2023-02-13T14:39:33;100279.97;;;19.53;21.93
64294;BME280;50636;45.596;5.258;2023-02-13T14:42:20;100273.75;;;19.59;22.17
64294;BME280;50636;45.596;5.258;2023-02-13T14:44:57;100276.63;;;19.83;21.94
64294;BME280;50636;45.596;5.258;2023-02-13T14:48:10;100272.66;;;19.67;21.67
64294;BME280;50636;45.596;5.258;2023-02-13T14:56:27;100278.69;;;19.37;21.20
64294;BME280;50636;45.596;5.258;2023-02-13T14:59:16;100275.31;;;19.23;21.23
64294;BME280;50636;45.596;5.258;2023-02-13T15:01:55;100269.69;;;19.13;21.93
64294;BME280;50636;45.596;5.258;2023-02-13T15:04:43;100265.41;;;19.12;22.10
64294;BME280;50636;45.596;5.258;2023-02-13T15:07:36;100268.28;;;19.10;22.02
64294;BME280;50636;45.596;5.258;2023-02-13T15:10:50;100269.03;;;18.92;22.03
64294;BME280;50636;45.596;5.258;2023-02-13T15:17:31;100267.53;;;18.65;21.98
64294;BME280;50636;45.596;5.258;2023-02-13T15:20:29;100273.56;;;18.47;21.99
64294;BME280;50636;45.596;5.258;2023-02-13T15:26:03;100264.38;;;18.49;21.77
64294;BME280;50636;45.596;5.258;2023-02-13T15:31:58;100273.28;;;18.23;22.05
64294;BME280;50636;45.596;5.258;2023-02-13T15:34:30;100271.28;;;18.12;22.09
64294;BME280;50636;45.596;5.258;2023-02-13T15:37:01;100271.47;;;18.17;22.22
64294;BME280;50636;45.596;5.258;2023-02-13T15:39:32;100266.78;;;18.12;22.29
64294;BME280;50636;45.596;5.258;2023-02-13T15:42:10;100266.19;;;18.10;22.28
64294;BME280;50636;45.596;5.258;2023-02-13T15:44:49;100263.59;;;17.97;22.37
64294;BME280;50636;45.596;5.258;2023-02-13T15:47:30;100265.00;;;18.00;22.33
64294;BME280;50636;45.596;5.258;2023-02-13T15:50:35;100263.59;;;17.90;22.60
64294;BME280;50636;45.596;5.258;2023-02-13T15:53:18;100260.75;;;17.85;22.69
64294;BME280;50636;45.596;5.258;2023-02-13T15:56:04;100267.25;;;17.83;22.60
64294;BME280;50636;45.596;5.258;2023-02-13T15:58:40;100267.09;;;17.77;22.57
64294;BME280;50636;45.596;5.258;2023-02-13T16:01:20;100265.25;;;17.71;23.00
64294;BME280;50636;45.596;5.258;2023-02-13T16:04:16;100268.56;;;17.67;22.67
64294;BME280;50636;45.596;5.258;2023-02-13T16:06:56;100262.84;;;17.63;22.53
64294;BME280;50636;45.596;5.258;2023-02-13T16:09:41;100268.13;;;17.63;22.60
64294;BME280;50636;45.596;5.258;2023-02-13T16:15:05;100268.97;;;17.50;22.76
64294;BME280;50636;45.596;5.258;2023-02-13T16:17:43;100268.38;;;17.42;23.04
64294;BME280;50636;45.596;5.258;2023-02-13T16:20:28;100263.50;;;17.39;22.99
64294;BME280;50636;45.596;5.258;2023-02-13T16:23:21;100270.63;;;17.38;23.27
64294;BME280;50636;45.596;5.258;2023-02-13T16:26:19;100270.63;;;17.31;23.90
64294;BME280;50636;45.596;5.258;2023-02-13T16:29:01;100271.47;;;17.19;23.88
64294;BME280;50636;45.596;5.258;2023-02-13T16:31:29;100279.41;;;17.05;23.99
64294;BME280;50636;45.596;5.258;2023-02-13T16:33:55;100278.56;;;16.91;24.20
64294;BME280;50636;45.596;5.258;2023-02-13T16:36:28;100275.66;;;16.73;24.69
64294;BME280;50636;45.596;5.258;2023-02-13T16:38:55;100275.25;;;16.63;24.76
64294;BME280;50636;45.596;5.258;2023-02-13T16:43:57;100279.88;;;16.47;25.11
64294;BME280;50636;45.596;5.258;2023-02-13T16:51:52;100283.88;;;16.23;25.61
64294;BME280;50636;45.596;5.258;2023-02-13T16:57:19;100290.22;;;15.87;26.42
64294;BME280;50636;45.596;5.258;2023-02-13T17:00:25;100292.84;;;15.81;26.73
64294;BME280;50636;45.596;5.258;2023-02-13T17:03:08;100292.25;;;15.85;26.79
64294;BME280;50636;45.596;5.258;2023-02-13T17:05:35;100306.03;;;15.74;27.11
64294;BME280;50636;45.596;5.258;2023-02-13T17:08:04;100303.66;;;15.57;26.88
64294;BME280;50636;45.596;5.258;2023-02-13T17:10:37;100306.41;;;15.43;27.22
64294;BME280;50636;45.596;5.258;2023-02-13T17:15:47;100308.94;;;15.29;27.84
64294;BME280;50636;45.596;5.258;2023-02-13T17:18:14;100304.84;;;15.27;27.81
64294;BME280;50636;45.596;5.258;2023-02-13T17:20:43;100317.75;;;15.15;27.83
64294;BME280;50636;45.596;5.258;2023-02-13T17:23:16;100314.28;;;14.93;28.21
64294;BME280;50636;45.596;5.258;2023-02-13T17:25:43;100322.88;;;14.73;28.53
64294;BME280;50636;45.596;5.258;2023-02-13T17:28:26;100322.34;;;14.63;28.86
64294;BME280;50636;45.596;5.258;2023-02-13T17:30:58;100324.72;;;14.58;29.13
64294;BME280;50636;45.596;5.258;2023-02-13T17:33:31;100330.19;;;14.56;29.15
64294;BME280;50636;45.596;5.258;2023-02-13T17:36:10;100332.47;;;14.45;29.33
64294;BME280;50636;45.596;5.258;2023-02-13T17:38:38;100337.19;;;14.34;29.37
64294;BME280;50636;45.596;5.258;2023-02-13T17:41:13;100336.75;;;14.31;29.35